sensor_id;sensor_type;location;lat;lon;timestamp;temperature;humidity
37340;DHT22;23223;51.006;7.610;2022-07-29T00:01:06;17.70;99.90
37340;DHT22;23223;51.006;7.610;2022-07-29T00:03:32;17.70;99.90
37340;DHT22;23223;51.006;7.610;2022-07-29T00:05:58;17.60;99.90
37340;DHT22;23223;51.006;7.610;2022-07-29T00:08:23;17.60;99.90
37340;DHT22;23223;51.006;7.610;2022-07-29T00:10:49;17.60;99.90
37340;DHT22;23223;51.006;7.610;2022-07-29T00:13:15;17.60;99.90
37340;DHT22;23223;51.006;7.610;2022-07-29T00:15:40;17.50;99.90
37340;DHT22;23223;51.006;7.610;2022-07-29T00:18:06;17.40;99.90
37340;DHT22;23223;51.006;7.610;2022-07-29T00:20:32;17.30;99.90
37340;DHT22;23223;51.006;7.610;2022-07-29T00:22:57;17.30;99.90
37340;DHT22;23223;51.006;7.610;2022-07-29T00:25:23;17.40;99.90
37340;DHT22;23223;51.006;7.610;2022-07-29T00:27:49;17.50;99.90
37340;DHT22;23223;51.006;7.610;2022-07-29T00:30:14;17.60;99.90
37340;DHT22;23223;51.006;7.610;2022-07-29T00:32:40;17.50;99.90
37340;DHT22;23223;51.006;7.610;2022-07-29T00:35:06;17.50;99.90
37340;DHT22;23223;51.006;7.610;2022-07-29T00:37:51;17.30;99.90
37340;DHT22;23223;51.006;7.610;2022-07-29T00:40:16;17.30;99.90
37340;DHT22;23223;51.006;7.610;2022-07-29T00:42:46;17.20;99.90
37340;DHT22;23223;51.006;7.610;2022-07-29T00:45:13;17.10;99.90
37340;DHT22;23223;51.006;7.610;2022-07-29T00:47:39;17.10;99.90
37340;DHT22;23223;51.006;7.610;2022-07-29T00:50:06;17.00;99.90
37340;DHT22;23223;51.006;7.610;2022-07-29T00:52:33;17.20;99.90
37340;DHT22;23223;51.006;7.610;2022-07-29T00:55:02;17.50;99.90
37340;DHT22;23223;51.006;7.610;2022-07-29T00:57:27;17.50;99.90
37340;DHT22;23223;51.006;7.610;2022-07-29T00:59:53;17.40;99.90
37340;DHT22;23223;51.006;7.610;2022-07-29T01:02:18;17.40;99.90
37340;DHT22;23223;51.006;7.610;2022-07-29T01:04:44;17.40;99.90
37340;DHT22;23223;51.006;7.610;2022-07-29T01:07:10;17.40;99.90
37340;DHT22;23223;51.006;7.610;2022-07-29T01:09:37;17.30;99.90
37340;DHT22;23223;51.006;7.610;2022-07-29T01:12:04;17.10;99.90
37340;DHT22;23223;51.006;7.610;2022-07-29T01:14:30;17.10;99.90
37340;DHT22;23223;51.006;7.610;2022-07-29T01:17:07;17.30;99.90
37340;DHT22;23223;51.006;7.610;2022-07-29T01:22:37;17.10;99.90
37340;DHT22;23223;51.006;7.610;2022-07-29T01:25:30;17.00;99.90
37340;DHT22;23223;51.006;7.610;2022-07-29T01:30:32;17.40;99.90
37340;DHT22;23223;51.006;7.610;2022-07-29T01:33:06;17.60;99.90
37340;DHT22;23223;51.006;7.610;2022-07-29T01:35:36;17.70;99.90
37340;DHT22;23223;51.006;7.610;2022-07-29T01:38:21;17.50;99.90
37340;DHT22;23223;51.006;7.610;2022-07-29T01:40:52;17.40;99.90
37340;DHT22;23223;51.006;7.610;2022-07-29T01:43:23;17.30;99.90
37340;DHT22;23223;51.006;7.610;2022-07-29T01:46:17;17.20;99.90
37340;DHT22;23223;51.006;7.610;2022-07-29T01:48:57;17.20;99.90
37340;DHT22;23223;51.006;7.610;2022-07-29T01:51:31;17.20;99.90
37340;DHT22;23223;51.006;7.610;2022-07-29T01:54:06;17.20;99.90
37340;DHT22;23223;51.006;7.610;2022-07-29T01:56:35;17.00;99.90
37340;DHT22;23223;51.006;7.610;2022-07-29T01:59:03;16.90;99.90
37340;DHT22;23223;51.006;7.610;2022-07-29T02:01:31;16.80;99.90
37340;DHT22;23223;51.006;7.610;2022-07-29T02:03:59;16.90;99.90
37340;DHT22;23223;51.006;7.610;2022-07-29T02:06:27;17.40;99.90
37340;DHT22;23223;51.006;7.610;2022-07-29T02:08:56;17.50;99.90
37340;DHT22;23223;51.006;7.610;2022-07-29T02:11:22;17.50;99.90
37340;DHT22;23223;51.006;7.610;2022-07-29T02:13:49;17.60;99.90
37340;DHT22;23223;51.006;7.610;2022-07-29T02:16:19;17.70;99.90
37340;DHT22;23223;51.006;7.610;2022-07-29T02:18:49;18.00;99.90
37340;DHT22;23223;51.006;7.610;2022-07-29T02:21:21;18.10;99.90
37340;DHT22;23223;51.006;7.610;2022-07-29T02:23:48;18.10;99.90
37340;DHT22;23223;51.006;7.610;2022-07-29T02:26:17;18.00;99.90
37340;DHT22;23223;51.006;7.610;2022-07-29T02:28:43;17.80;99.90
37340;DHT22;23223;51.006;7.610;2022-07-29T02:31:11;17.50;99.90
37340;DHT22;23223;51.006;7.610;2022-07-29T02:33:37;17.40;99.90
37340;DHT22;23223;51.006;7.610;2022-07-29T02:36:04;17.50;99.90
37340;DHT22;23223;51.006;7.610;2022-07-29T02:38:30;17.60;99.90
37340;DHT22;23223;51.006;7.610;2022-07-29T02:41:23;17.70;99.90
37340;DHT22;23223;51.006;7.610;2022-07-29T02:43:52;18.00;99.90
37340;DHT22;23223;51.006;7.610;2022-07-29T02:46:27;18.10;99.90
37340;DHT22;23223;51.006;7.610;2022-07-29T02:49:14;18.00;99.90
37340;DHT22;23223;51.006;7.610;2022-07-29T02:51:44;17.90;99.90
37340;DHT22;23223;51.006;7.610;2022-07-29T02:54:14;18.00;99.90
37340;DHT22;23223;51.006;7.610;2022-07-29T02:56:44;17.90;99.90
37340;DHT22;23223;51.006;7.610;2022-07-29T02:59:11;17.70;99.90
37340;DHT22;23223;51.006;7.610;2022-07-29T03:01:40;17.70;99.90
37340;DHT22;23223;51.006;7.610;2022-07-29T03:04:08;17.60;99.90
37340;DHT22;23223;51.006;7.610;2022-07-29T03:06:35;17.50;99.90
37340;DHT22;23223;51.006;7.610;2022-07-29T03:09:03;17.40;99.90
37340;DHT22;23223;51.006;7.610;2022-07-29T03:11:29;17.40;99.90
37340;DHT22;23223;51.006;7.610;2022-07-29T03:13:55;17.40;99.90
37340;DHT22;23223;51.006;7.610;2022-07-29T03:16:21;17.40;99.90
37340;DHT22;23223;51.006;7.610;2022-07-29T03:18:50;17.20;99.90
37340;DHT22;23223;51.006;7.610;2022-07-29T03:21:16;17.00;99.90
37340;DHT22;23223;51.006;7.610;2022-07-29T03:23:45;16.90;99.90
37340;DHT22;23223;51.006;7.610;2022-07-29T03:26:11;16.70;99.90
37340;DHT22;23223;51.006;7.610;2022-07-29T03:28:37;16.70;99.90
37340;DHT22;23223;51.006;7.610;2022-07-29T03:31:03;16.80;99.90
37340;DHT22;23223;51.006;7.610;2022-07-29T03:33:28;16.70;99.90
37340;DHT22;23223;51.006;7.610;2022-07-29T03:35:56;16.70;99.90
37340;DHT22;23223;51.006;7.610;2022-07-29T03:38:25;16.70;99.90
37340;DHT22;23223;51.006;7.610;2022-07-29T03:41:07;16.60;99.90
37340;DHT22;23223;51.006;7.610;2022-07-29T03:43:36;16.50;99.90
37340;DHT22;23223;51.006;7.610;2022-07-29T03:46:05;16.50;99.90
37340;DHT22;23223;51.006;7.610;2022-07-29T03:48:33;16.50;99.90
37340;DHT22;23223;51.006;7.610;2022-07-29T03:51:00;16.30;99.90
37340;DHT22;23223;51.006;7.610;2022-07-29T03:53:26;16.20;99.90
37340;DHT22;23223;51.006;7.610;2022-07-29T03:55:55;16.10;99.90
37340;DHT22;23223;51.006;7.610;2022-07-29T03:58:23;16.10;99.90
37340;DHT22;23223;51.006;7.610;2022-07-29T04:00:50;16.50;99.90
37340;DHT22;23223;51.006;7.610;2022-07-29T04:03:16;16.70;99.90
37340;DHT22;23223;51.006;7.610;2022-07-29T04:05:42;16.80;99.90
37340;DHT22;23223;51.006;7.610;2022-07-29T04:08:07;16.70;99.90
37340;DHT22;23223;51.006;7.610;2022-07-29T04:10:33;16.60;99.90
37340;DHT22;23223;51.006;7.610;2022-07-29T04:12:59;16.40;99.90
37340;DHT22;23223;51.006;7.610;2022-07-29T04:15:25;16.30;99.90
37340;DHT22;23223;51.006;7.610;2022-07-29T04:17:52;16.20;99.90
37340;DHT22;23223;51.006;7.610;2022-07-29T04:20:18;16.10;99.90
37340;DHT22;23223;51.006;7.610;2022-07-29T04:22:43;16.00;99.90
37340;DHT22;23223;51.006;7.610;2022-07-29T04:25:09;16.00;99.90
37340;DHT22;23223;51.006;7.610;2022-07-29T04:27:35;16.50;99.90
37340;DHT22;23223;51.006;7.610;2022-07-29T04:30:01;17.00;99.90
37340;DHT22;23223;51.006;7.610;2022-07-29T04:32:27;17.30;99.90
37340;DHT22;23223;51.006;7.610;2022-07-29T04:34:53;17.30;99.90
37340;DHT22;23223;51.006;7.610;2022-07-29T04:37:18;17.10;99.90
37340;DHT22;23223;51.006;7.610;2022-07-29T04:39:44;17.10;99.90
37340;DHT22;23223;51.006;7.610;2022-07-29T04:42:09;17.10;99.90
37340;DHT22;23223;51.006;7.610;2022-07-29T04:44:35;17.00;99.90
37340;DHT22;23223;51.006;7.610;2022-07-29T04:47:01;16.80;99.90
37340;DHT22;23223;51.006;7.610;2022-07-29T04:49:26;16.80;99.90
37340;DHT22;23223;51.006;7.610;2022-07-29T04:51:52;16.90;99.90
37340;DHT22;23223;51.006;7.610;2022-07-29T04:54:18;17.10;99.90
37340;DHT22;23223;51.006;7.610;2022-07-29T04:56:43;17.30;99.90
37340;DHT22;23223;51.006;7.610;2022-07-29T04:59:09;17.30;99.90
37340;DHT22;23223;51.006;7.610;2022-07-29T05:01:35;17.20;99.90
37340;DHT22;23223;51.006;7.610;2022-07-29T05:04:00;17.20;99.90
37340;DHT22;23223;51.006;7.610;2022-07-29T05:06:26;17.10;99.90
37340;DHT22;23223;51.006;7.610;2022-07-29T05:08:52;17.10;99.90
37340;DHT22;23223;51.006;7.610;2022-07-29T05:11:17;17.10;99.90
37340;DHT22;23223;51.006;7.610;2022-07-29T05:13:43;17.00;99.90
37340;DHT22;23223;51.006;7.610;2022-07-29T05:16:08;17.00;99.90
37340;DHT22;23223;51.006;7.610;2022-07-29T05:18:34;17.00;99.90
37340;DHT22;23223;51.006;7.610;2022-07-29T05:21:00;17.20;99.90
37340;DHT22;23223;51.006;7.610;2022-07-29T05:23:25;17.30;99.90
37340;DHT22;23223;51.006;7.610;2022-07-29T05:25:51;17.40;99.90
37340;DHT22;23223;51.006;7.610;2022-07-29T05:28:16;17.20;99.90
37340;DHT22;23223;51.006;7.610;2022-07-29T05:30:42;17.10;99.90
37340;DHT22;23223;51.006;7.610;2022-07-29T05:33:09;17.10;99.90
37340;DHT22;23223;51.006;7.610;2022-07-29T05:35:35;17.00;99.90
37340;DHT22;23223;51.006;7.610;2022-07-29T05:38:02;17.20;99.90
37340;DHT22;23223;51.006;7.610;2022-07-29T05:40:28;17.50;99.90
37340;DHT22;23223;51.006;7.610;2022-07-29T05:42:54;17.80;99.90
37340;DHT22;23223;51.006;7.610;2022-07-29T05:45:20;17.90;99.90
37340;DHT22;23223;51.006;7.610;2022-07-29T05:47:45;17.90;99.90
37340;DHT22;23223;51.006;7.610;2022-07-29T05:50:11;17.80;99.90
37340;DHT22;23223;51.006;7.610;2022-07-29T05:52:37;17.80;99.90
37340;DHT22;23223;51.006;7.610;2022-07-29T05:55:02;17.70;99.90
37340;DHT22;23223;51.006;7.610;2022-07-29T05:57:30;17.80;99.90
37340;DHT22;23223;51.006;7.610;2022-07-29T05:59:56;18.30;99.90
37340;DHT22;23223;51.006;7.610;2022-07-29T06:02:21;18.80;99.90
37340;DHT22;23223;51.006;7.610;2022-07-29T06:04:47;19.00;99.90
37340;DHT22;23223;51.006;7.610;2022-07-29T06:07:13;19.10;99.90
37340;DHT22;23223;51.006;7.610;2022-07-29T06:09:39;19.00;99.90
37340;DHT22;23223;51.006;7.610;2022-07-29T06:12:05;19.00;99.90
37340;DHT22;23223;51.006;7.610;2022-07-29T06:14:31;18.90;99.90
37340;DHT22;23223;51.006;7.610;2022-07-29T06:16:57;18.90;99.90
37340;DHT22;23223;51.006;7.610;2022-07-29T06:19:23;18.90;99.90
37340;DHT22;23223;51.006;7.610;2022-07-29T06:21:49;19.10;99.90
37340;DHT22;23223;51.006;7.610;2022-07-29T06:24:15;19.40;99.90
37340;DHT22;23223;51.006;7.610;2022-07-29T06:26:41;19.60;99.90
37340;DHT22;23223;51.006;7.610;2022-07-29T06:29:07;19.70;99.90
37340;DHT22;23223;51.006;7.610;2022-07-29T06:31:33;19.70;99.90
37340;DHT22;23223;51.006;7.610;2022-07-29T06:33:59;19.60;99.90
37340;DHT22;23223;51.006;7.610;2022-07-29T06:36:25;19.50;99.90
37340;DHT22;23223;51.006;7.610;2022-07-29T06:38:50;19.40;99.90
37340;DHT22;23223;51.006;7.610;2022-07-29T06:41:16;19.40;99.90
37340;DHT22;23223;51.006;7.610;2022-07-29T06:43:43;19.50;99.90
37340;DHT22;23223;51.006;7.610;2022-07-29T06:46:11;19.60;99.90
37340;DHT22;23223;51.006;7.610;2022-07-29T06:48:38;19.90;99.90
37340;DHT22;23223;51.006;7.610;2022-07-29T06:51:05;20.10;99.90
37340;DHT22;23223;51.006;7.610;2022-07-29T06:53:32;20.30;99.90
37340;DHT22;23223;51.006;7.610;2022-07-29T06:55:59;20.60;99.90
37340;DHT22;23223;51.006;7.610;2022-07-29T06:58:25;20.90;99.90
37340;DHT22;23223;51.006;7.610;2022-07-29T07:00:51;21.20;99.90
37340;DHT22;23223;51.006;7.610;2022-07-29T07:03:17;21.70;99.90
37340;DHT22;23223;51.006;7.610;2022-07-29T07:05:44;22.10;99.90
37340;DHT22;23223;51.006;7.610;2022-07-29T07:08:11;22.70;99.90
37340;DHT22;23223;51.006;7.610;2022-07-29T07:10:36;23.30;99.90
37340;DHT22;23223;51.006;7.610;2022-07-29T07:13:03;24.00;99.90
37340;DHT22;23223;51.006;7.610;2022-07-29T07:15:29;24.50;99.90
37340;DHT22;23223;51.006;7.610;2022-07-29T07:17:55;24.80;99.90
37340;DHT22;23223;51.006;7.610;2022-07-29T07:20:21;25.30;99.90
37340;DHT22;23223;51.006;7.610;2022-07-29T07:22:47;25.90;99.90
37340;DHT22;23223;51.006;7.610;2022-07-29T07:25:13;26.00;99.90
37340;DHT22;23223;51.006;7.610;2022-07-29T07:27:38;26.30;99.90
37340;DHT22;23223;51.006;7.610;2022-07-29T07:30:05;26.60;99.40
37340;DHT22;23223;51.006;7.610;2022-07-29T07:32:32;26.90;97.10
37340;DHT22;23223;51.006;7.610;2022-07-29T07:34:58;27.00;93.50
37340;DHT22;23223;51.006;7.610;2022-07-29T07:37:24;26.90;89.80
37340;DHT22;23223;51.006;7.610;2022-07-29T07:39:53;26.90;90.10
37340;DHT22;23223;51.006;7.610;2022-07-29T07:42:19;27.20;90.40
37340;DHT22;23223;51.006;7.610;2022-07-29T07:44:45;27.60;90.30
37340;DHT22;23223;51.006;7.610;2022-07-29T07:47:11;28.00;89.70
37340;DHT22;23223;51.006;7.610;2022-07-29T07:49:37;28.40;87.10
37340;DHT22;23223;51.006;7.610;2022-07-29T07:52:03;28.60;84.30
37340;DHT22;23223;51.006;7.610;2022-07-29T07:54:28;28.60;84.30
37340;DHT22;23223;51.006;7.610;2022-07-29T07:56:54;28.80;86.00
37340;DHT22;23223;51.006;7.610;2022-07-29T07:59:20;29.00;80.60
37340;DHT22;23223;51.006;7.610;2022-07-29T08:01:49;29.30;79.30
37340;DHT22;23223;51.006;7.610;2022-07-29T08:04:14;29.40;77.00
37340;DHT22;23223;51.006;7.610;2022-07-29T08:06:40;29.20;77.60
37340;DHT22;23223;51.006;7.610;2022-07-29T08:09:05;28.70;76.20
37340;DHT22;23223;51.006;7.610;2022-07-29T08:11:31;28.40;86.10
37340;DHT22;23223;51.006;7.610;2022-07-29T08:13:57;27.70;78.90
37340;DHT22;23223;51.006;7.610;2022-07-29T08:16:23;27.40;84.10
37340;DHT22;23223;51.006;7.610;2022-07-29T08:18:51;27.10;81.40
37340;DHT22;23223;51.006;7.610;2022-07-29T08:21:17;26.80;82.10
37340;DHT22;23223;51.006;7.610;2022-07-29T08:23:44;26.60;85.50
37340;DHT22;23223;51.006;7.610;2022-07-29T08:26:19;26.70;86.60
37340;DHT22;23223;51.006;7.610;2022-07-29T08:28:45;27.30;83.70
37340;DHT22;23223;51.006;7.610;2022-07-29T08:31:14;27.90;81.80
37340;DHT22;23223;51.006;7.610;2022-07-29T08:33:39;28.30;80.20
37340;DHT22;23223;51.006;7.610;2022-07-29T08:36:06;28.80;79.00
37340;DHT22;23223;51.006;7.610;2022-07-29T08:38:32;29.10;78.20
37340;DHT22;23223;51.006;7.610;2022-07-29T08:40:58;29.80;77.30
37340;DHT22;23223;51.006;7.610;2022-07-29T08:43:25;30.20;75.20
37340;DHT22;23223;51.006;7.610;2022-07-29T08:45:51;30.40;74.10
37340;DHT22;23223;51.006;7.610;2022-07-29T08:48:19;30.60;72.80
37340;DHT22;23223;51.006;7.610;2022-07-29T08:50:46;31.00;73.30
37340;DHT22;23223;51.006;7.610;2022-07-29T08:53:14;31.10;70.70
37340;DHT22;23223;51.006;7.610;2022-07-29T08:55:46;31.10;70.60
37340;DHT22;23223;51.006;7.610;2022-07-29T08:58:13;31.80;70.80
37340;DHT22;23223;51.006;7.610;2022-07-29T09:00:47;32.20;69.20
37340;DHT22;23223;51.006;7.610;2022-07-29T09:03:20;32.30;67.20
37340;DHT22;23223;51.006;7.610;2022-07-29T09:05:48;32.30;67.10
37340;DHT22;23223;51.006;7.610;2022-07-29T09:08:15;32.00;66.40
37340;DHT22;23223;51.006;7.610;2022-07-29T09:10:41;31.90;66.20
37340;DHT22;23223;51.006;7.610;2022-07-29T09:13:07;31.70;66.10
37340;DHT22;23223;51.006;7.610;2022-07-29T09:15:33;30.90;66.20
37340;DHT22;23223;51.006;7.610;2022-07-29T09:17:59;30.10;67.80
37340;DHT22;23223;51.006;7.610;2022-07-29T09:20:26;29.50;69.60
37340;DHT22;23223;51.006;7.610;2022-07-29T09:23:12;29.20;70.60
37340;DHT22;23223;51.006;7.610;2022-07-29T09:25:40;29.00;70.50
37340;DHT22;23223;51.006;7.610;2022-07-29T09:28:07;28.80;71.20
37340;DHT22;23223;51.006;7.610;2022-07-29T09:30:34;28.80;79.90
37340;DHT22;23223;51.006;7.610;2022-07-29T09:33:02;29.00;74.70
37340;DHT22;23223;51.006;7.610;2022-07-29T09:35:28;29.00;76.90
37340;DHT22;23223;51.006;7.610;2022-07-29T09:37:55;29.50;77.10
37340;DHT22;23223;51.006;7.610;2022-07-29T09:40:25;30.00;77.50
37340;DHT22;23223;51.006;7.610;2022-07-29T09:42:51;30.90;78.10
37340;DHT22;23223;51.006;7.610;2022-07-29T09:45:31;31.10;70.60
37340;DHT22;23223;51.006;7.610;2022-07-29T09:47:58;30.90;68.00
37340;DHT22;23223;51.006;7.610;2022-07-29T09:50:39;30.70;68.20
37340;DHT22;23223;51.006;7.610;2022-07-29T09:53:05;30.30;69.00
37340;DHT22;23223;51.006;7.610;2022-07-29T09:55:31;29.60;70.60
37340;DHT22;23223;51.006;7.610;2022-07-29T09:58:17;29.40;72.70
37340;DHT22;23223;51.006;7.610;2022-07-29T10:00:43;28.90;73.20
37340;DHT22;23223;51.006;7.610;2022-07-29T10:03:09;28.40;73.20
37340;DHT22;23223;51.006;7.610;2022-07-29T10:05:35;28.20;75.20
37340;DHT22;23223;51.006;7.610;2022-07-29T10:08:00;28.30;78.60
37340;DHT22;23223;51.006;7.610;2022-07-29T10:10:35;28.20;76.30
37340;DHT22;23223;51.006;7.610;2022-07-29T10:13:10;28.40;80.70
37340;DHT22;23223;51.006;7.610;2022-07-29T10:15:38;28.30;76.70
37340;DHT22;23223;51.006;7.610;2022-07-29T10:18:07;28.10;76.90
37340;DHT22;23223;51.006;7.610;2022-07-29T10:20:34;28.00;78.30
37340;DHT22;23223;51.006;7.610;2022-07-29T10:23:00;27.90;80.10
37340;DHT22;23223;51.006;7.610;2022-07-29T10:25:26;28.20;81.90
37340;DHT22;23223;51.006;7.610;2022-07-29T10:27:55;28.50;78.80
37340;DHT22;23223;51.006;7.610;2022-07-29T10:30:22;28.70;79.50
37340;DHT22;23223;51.006;7.610;2022-07-29T10:41:33;31.00;72.00
37340;DHT22;23223;51.006;7.610;2022-07-29T10:44:06;31.40;70.60
37340;DHT22;23223;51.006;7.610;2022-07-29T10:46:37;31.60;69.60
37340;DHT22;23223;51.006;7.610;2022-07-29T10:52:00;32.50;67.90
37340;DHT22;23223;51.006;7.610;2022-07-29T10:54:39;33.10;65.30
37340;DHT22;23223;51.006;7.610;2022-07-29T10:59:46;33.80;62.50
37340;DHT22;23223;51.006;7.610;2022-07-29T11:05:04;34.00;61.10
37340;DHT22;23223;51.006;7.610;2022-07-29T11:07:31;34.10;61.10
37340;DHT22;23223;51.006;7.610;2022-07-29T11:15:10;34.60;63.00
37340;DHT22;23223;51.006;7.610;2022-07-29T11:31:36;34.60;58.10
37340;DHT22;23223;51.006;7.610;2022-07-29T11:34:27;34.80;58.00
37340;DHT22;23223;51.006;7.610;2022-07-29T11:39:33;33.80;58.20
37340;DHT22;23223;51.006;7.610;2022-07-29T11:47:32;34.10;58.40
37340;DHT22;23223;51.006;7.610;2022-07-29T11:49:59;33.90;58.20
37340;DHT22;23223;51.006;7.610;2022-07-29T11:52:48;34.10;60.80
37340;DHT22;23223;51.006;7.610;2022-07-29T11:55:19;34.00;58.00
37340;DHT22;23223;51.006;7.610;2022-07-29T11:57:58;34.10;58.90
37340;DHT22;23223;51.006;7.610;2022-07-29T12:00:29;34.40;59.40
37340;DHT22;23223;51.006;7.610;2022-07-29T12:02:55;34.70;58.10
37340;DHT22;23223;51.006;7.610;2022-07-29T12:05:31;34.50;58.40
37340;DHT22;23223;51.006;7.610;2022-07-29T12:08:04;34.80;59.00
37340;DHT22;23223;51.006;7.610;2022-07-29T12:10:31;35.40;58.30
37340;DHT22;23223;51.006;7.610;2022-07-29T12:12:56;35.50;56.30
37340;DHT22;23223;51.006;7.610;2022-07-29T12:15:22;35.50;57.00
37340;DHT22;23223;51.006;7.610;2022-07-29T12:17:49;35.60;56.60
37340;DHT22;23223;51.006;7.610;2022-07-29T12:20:29;35.30;56.20
37340;DHT22;23223;51.006;7.610;2022-07-29T12:22:56;35.80;56.70
37340;DHT22;23223;51.006;7.610;2022-07-29T12:25:23;36.40;58.70
37340;DHT22;23223;51.006;7.610;2022-07-29T12:28:07;36.60;55.10
37340;DHT22;23223;51.006;7.610;2022-07-29T12:33:12;35.70;54.70
37340;DHT22;23223;51.006;7.610;2022-07-29T12:35:38;35.80;56.00
37340;DHT22;23223;51.006;7.610;2022-07-29T12:38:04;36.00;56.00
37340;DHT22;23223;51.006;7.610;2022-07-29T12:40:30;36.40;55.90
37340;DHT22;23223;51.006;7.610;2022-07-29T12:43:05;36.20;55.30
37340;DHT22;23223;51.006;7.610;2022-07-29T12:45:32;36.10;55.40
37340;DHT22;23223;51.006;7.610;2022-07-29T12:47:58;36.40;56.80
37340;DHT22;23223;51.006;7.610;2022-07-29T12:50:24;36.50;54.80
37340;DHT22;23223;51.006;7.610;2022-07-29T12:52:50;36.90;57.60
37340;DHT22;23223;51.006;7.610;2022-07-29T12:55:37;36.90;52.90
37340;DHT22;23223;51.006;7.610;2022-07-29T12:58:02;36.80;53.30
37340;DHT22;23223;51.006;7.610;2022-07-29T13:00:27;36.60;54.70
37340;DHT22;23223;51.006;7.610;2022-07-29T13:02:56;36.40;54.00
37340;DHT22;23223;51.006;7.610;2022-07-29T13:05:22;36.40;54.20
37340;DHT22;23223;51.006;7.610;2022-07-29T13:07:47;36.40;53.50
37340;DHT22;23223;51.006;7.610;2022-07-29T13:10:16;36.00;56.80
37340;DHT22;23223;51.006;7.610;2022-07-29T13:13:22;36.00;54.30
37340;DHT22;23223;51.006;7.610;2022-07-29T13:16:05;36.10;53.60
37340;DHT22;23223;51.006;7.610;2022-07-29T13:18:34;35.60;53.80
37340;DHT22;23223;51.006;7.610;2022-07-29T13:21:13;35.80;54.70
37340;DHT22;23223;51.006;7.610;2022-07-29T13:23:39;35.50;55.10
37340;DHT22;23223;51.006;7.610;2022-07-29T13:26:07;35.20;54.70
37340;DHT22;23223;51.006;7.610;2022-07-29T13:28:33;35.20;55.80
37340;DHT22;23223;51.006;7.610;2022-07-29T13:30:59;34.80;55.20
37340;DHT22;23223;51.006;7.610;2022-07-29T13:33:25;34.70;55.70
37340;DHT22;23223;51.006;7.610;2022-07-29T13:35:51;34.70;56.50
37340;DHT22;23223;51.006;7.610;2022-07-29T13:38:17;34.60;56.80
37340;DHT22;23223;51.006;7.610;2022-07-29T13:40:42;34.90;57.60
37340;DHT22;23223;51.006;7.610;2022-07-29T13:43:11;34.50;55.70
37340;DHT22;23223;51.006;7.610;2022-07-29T13:45:37;34.20;55.90
37340;DHT22;23223;51.006;7.610;2022-07-29T13:48:03;34.10;56.60
37340;DHT22;23223;51.006;7.610;2022-07-29T13:50:28;34.40;57.50
37340;DHT22;23223;51.006;7.610;2022-07-29T13:52:54;34.60;56.70
37340;DHT22;23223;51.006;7.610;2022-07-29T13:55:20;34.60;57.90
37340;DHT22;23223;51.006;7.610;2022-07-29T13:57:46;34.10;59.10
37340;DHT22;23223;51.006;7.610;2022-07-29T14:00:13;34.00;59.80
37340;DHT22;23223;51.006;7.610;2022-07-29T14:02:38;33.50;60.50
37340;DHT22;23223;51.006;7.610;2022-07-29T14:05:08;33.60;60.90
37340;DHT22;23223;51.006;7.610;2022-07-29T14:07:35;34.00;61.70
37340;DHT22;23223;51.006;7.610;2022-07-29T14:10:01;33.90;61.70
37340;DHT22;23223;51.006;7.610;2022-07-29T14:12:27;34.10;61.50
37340;DHT22;23223;51.006;7.610;2022-07-29T14:14:52;34.50;60.60
37340;DHT22;23223;51.006;7.610;2022-07-29T14:17:18;34.90;60.30
37340;DHT22;23223;51.006;7.610;2022-07-29T14:19:43;34.40;60.40
37340;DHT22;23223;51.006;7.610;2022-07-29T14:22:09;34.30;61.40
37340;DHT22;23223;51.006;7.610;2022-07-29T14:24:35;34.10;61.80
37340;DHT22;23223;51.006;7.610;2022-07-29T14:27:03;33.60;62.70
37340;DHT22;23223;51.006;7.610;2022-07-29T14:29:29;33.40;63.60
37340;DHT22;23223;51.006;7.610;2022-07-29T14:31:54;33.10;64.50
37340;DHT22;23223;51.006;7.610;2022-07-29T14:34:20;32.70;65.30
37340;DHT22;23223;51.006;7.610;2022-07-29T14:36:46;32.40;66.40
37340;DHT22;23223;51.006;7.610;2022-07-29T14:39:11;32.20;66.40
37340;DHT22;23223;51.006;7.610;2022-07-29T14:41:37;31.70;67.70
37340;DHT22;23223;51.006;7.610;2022-07-29T14:44:03;31.50;68.10
37340;DHT22;23223;51.006;7.610;2022-07-29T14:46:29;31.50;68.50
37340;DHT22;23223;51.006;7.610;2022-07-29T14:48:55;31.50;69.20
37340;DHT22;23223;51.006;7.610;2022-07-29T14:51:20;30.90;70.30
37340;DHT22;23223;51.006;7.610;2022-07-29T14:53:46;30.80;71.30
37340;DHT22;23223;51.006;7.610;2022-07-29T14:56:12;30.70;71.90
37340;DHT22;23223;51.006;7.610;2022-07-29T14:58:37;30.80;72.50
37340;DHT22;23223;51.006;7.610;2022-07-29T15:01:03;30.60;72.40
37340;DHT22;23223;51.006;7.610;2022-07-29T15:03:29;30.70;72.60
37340;DHT22;23223;51.006;7.610;2022-07-29T15:05:54;30.90;72.30
37340;DHT22;23223;51.006;7.610;2022-07-29T15:08:20;30.90;72.30
37340;DHT22;23223;51.006;7.610;2022-07-29T15:10:46;30.70;72.60
37340;DHT22;23223;51.006;7.610;2022-07-29T15:13:11;30.50;73.80
37340;DHT22;23223;51.006;7.610;2022-07-29T15:15:37;30.60;73.70
37340;DHT22;23223;51.006;7.610;2022-07-29T15:18:02;30.60;74.10
37340;DHT22;23223;51.006;7.610;2022-07-29T15:20:28;30.70;74.00
37340;DHT22;23223;51.006;7.610;2022-07-29T15:22:54;30.60;74.40
37340;DHT22;23223;51.006;7.610;2022-07-29T15:25:21;30.70;73.50
37340;DHT22;23223;51.006;7.610;2022-07-29T15:27:47;30.50;74.30
37340;DHT22;23223;51.006;7.610;2022-07-29T15:30:13;30.50;75.00
37340;DHT22;23223;51.006;7.610;2022-07-29T15:32:40;30.30;75.50
37340;DHT22;23223;51.006;7.610;2022-07-29T15:35:06;30.20;76.20
37340;DHT22;23223;51.006;7.610;2022-07-29T15:37:32;30.00;76.90
37340;DHT22;23223;51.006;7.610;2022-07-29T15:40:00;29.60;78.20
37340;DHT22;23223;51.006;7.610;2022-07-29T15:42:25;29.40;78.50
37340;DHT22;23223;51.006;7.610;2022-07-29T15:44:51;29.50;80.20
37340;DHT22;23223;51.006;7.610;2022-07-29T15:47:16;30.00;78.00
37340;DHT22;23223;51.006;7.610;2022-07-29T15:49:42;29.90;78.00
37340;DHT22;23223;51.006;7.610;2022-07-29T15:52:09;29.60;78.20
37340;DHT22;23223;51.006;7.610;2022-07-29T15:54:37;29.30;78.50
37340;DHT22;23223;51.006;7.610;2022-07-29T15:57:04;29.30;78.60
37340;DHT22;23223;51.006;7.610;2022-07-29T15:59:30;29.30;80.00
37340;DHT22;23223;51.006;7.610;2022-07-29T16:01:56;29.50;77.50
37340;DHT22;23223;51.006;7.610;2022-07-29T16:04:22;29.40;78.70
37340;DHT22;23223;51.006;7.610;2022-07-29T16:06:48;29.60;76.20
37340;DHT22;23223;51.006;7.610;2022-07-29T16:09:15;29.80;75.20
37340;DHT22;23223;51.006;7.610;2022-07-29T16:11:41;29.80;76.50
37340;DHT22;23223;51.006;7.610;2022-07-29T16:14:07;29.70;75.00
37340;DHT22;23223;51.006;7.610;2022-07-29T16:16:35;29.50;74.80
37340;DHT22;23223;51.006;7.610;2022-07-29T16:19:01;29.20;74.90
37340;DHT22;23223;51.006;7.610;2022-07-29T16:21:26;28.90;75.00
37340;DHT22;23223;51.006;7.610;2022-07-29T16:23:52;28.60;74.50
37340;DHT22;23223;51.006;7.610;2022-07-29T16:26:18;28.50;77.00